sensor_id;sensor_type;location;lat;lon;timestamp;P1;durP1;ratioP1;P2;durP2;ratioP2
68315;SDS011;55508;54.368;18.406;2022-08-24T00:00:35;29.35;;;18.27;;
68315;SDS011;55508;54.368;18.406;2022-08-24T00:03:03;36.13;;;19.33;;
68315;SDS011;55508;54.368;18.406;2022-08-24T00:05:30;37.83;;;19.70;;
68315;SDS011;55508;54.368;18.406;2022-08-24T00:07:57;37.28;;;20.25;;
68315;SDS011;55508;54.368;18.406;2022-08-24T00:10:24;38.90;;;19.77;;
68315;SDS011;55508;54.368;18.406;2022-08-24T00:12:52;46.03;;;21.00;;
68315;SDS011;55508;54.368;18.406;2022-08-24T00:15:19;45.03;;;21.67;;
68315;SDS011;55508;54.368;18.406;2022-08-24T00:17:46;42.22;;;21.02;;
68315;SDS011;55508;54.368;18.406;2022-08-24T00:20:13;45.83;;;21.65;;
68315;SDS011;55508;54.368;18.406;2022-08-24T00:22:40;38.88;;;21.30;;
68315;SDS011;55508;54.368;18.406;2022-08-24T00:25:09;43.40;;;22.30;;
68315;SDS011;55508;54.368;18.406;2022-08-24T00:27:37;47.40;;;23.23;;
68315;SDS011;55508;54.368;18.406;2022-08-24T00:30:08;47.75;;;22.02;;
68315;SDS011;55508;54.368;18.406;2022-08-24T00:32:36;42.00;;;22.65;;
68315;SDS011;55508;54.368;18.406;2022-08-24T00:35:04;46.58;;;23.33;;
68315;SDS011;55508;54.368;18.406;2022-08-24T00:37:33;44.28;;;23.08;;
68315;SDS011;55508;54.368;18.406;2022-08-24T00:40:03;44.38;;;24.33;;
68315;SDS011;55508;54.368;18.406;2022-08-24T00:42:32;48.40;;;24.80;;
68315;SDS011;55508;54.368;18.406;2022-08-24T00:44:59;49.63;;;24.55;;
68315;SDS011;55508;54.368;18.406;2022-08-24T00:47:27;46.40;;;24.20;;
68315;SDS011;55508;54.368;18.406;2022-08-24T00:50:00;47.95;;;22.83;;
68315;SDS011;55508;54.368;18.406;2022-08-24T00:52:37;37.70;;;23.23;;
68315;SDS011;55508;54.368;18.406;2022-08-24T00:55:07;42.10;;;22.85;;
68315;SDS011;55508;54.368;18.406;2022-08-24T01:00:08;44.42;;;23.35;;
68315;SDS011;55508;54.368;18.406;2022-08-24T01:02:38;38.13;;;22.33;;
68315;SDS011;55508;54.368;18.406;2022-08-24T01:05:09;41.45;;;22.42;;
68315;SDS011;55508;54.368;18.406;2022-08-24T01:07:38;41.72;;;22.00;;
68315;SDS011;55508;54.368;18.406;2022-08-24T01:10:09;39.20;;;21.60;;
68315;SDS011;55508;54.368;18.406;2022-08-24T01:12:40;40.05;;;21.42;;
68315;SDS011;55508;54.368;18.406;2022-08-24T01:15:26;32.83;;;21.63;;
68315;SDS011;55508;54.368;18.406;2022-08-24T01:17:55;31.33;;;20.08;;
68315;SDS011;55508;54.368;18.406;2022-08-24T01:20:42;31.77;;;19.25;;
68315;SDS011;55508;54.368;18.406;2022-08-24T01:26:03;32.53;;;19.80;;
68315;SDS011;55508;54.368;18.406;2022-08-24T01:28:31;30.85;;;19.33;;
68315;SDS011;55508;54.368;18.406;2022-08-24T01:31:02;30.08;;;20.02;;
68315;SDS011;55508;54.368;18.406;2022-08-24T01:33:30;32.85;;;19.85;;
68315;SDS011;55508;54.368;18.406;2022-08-24T01:35:59;33.00;;;19.60;;
68315;SDS011;55508;54.368;18.406;2022-08-24T01:38:30;32.65;;;20.42;;
68315;SDS011;55508;54.368;18.406;2022-08-24T01:41:00;30.15;;;20.25;;
68315;SDS011;55508;54.368;18.406;2022-08-24T01:43:29;33.22;;;19.55;;
68315;SDS011;55508;54.368;18.406;2022-08-24T01:46:00;31.25;;;19.42;;
68315;SDS011;55508;54.368;18.406;2022-08-24T01:48:27;30.13;;;19.52;;
68315;SDS011;55508;54.368;18.406;2022-08-24T01:50:54;28.27;;;19.48;;
68315;SDS011;55508;54.368;18.406;2022-08-24T01:53:21;34.13;;;20.25;;
68315;SDS011;55508;54.368;18.406;2022-08-24T01:55:49;33.97;;;20.10;;
68315;SDS011;55508;54.368;18.406;2022-08-24T01:58:17;32.90;;;20.48;;
68315;SDS011;55508;54.368;18.406;2022-08-24T02:00:44;38.65;;;21.73;;
68315;SDS011;55508;54.368;18.406;2022-08-24T02:03:12;31.77;;;20.77;;
68315;SDS011;55508;54.368;18.406;2022-08-24T02:05:43;26.73;;;20.23;;
68315;SDS011;55508;54.368;18.406;2022-08-24T02:08:13;33.40;;;19.65;;
68315;SDS011;55508;54.368;18.406;2022-08-24T02:10:40;32.08;;;20.63;;
68315;SDS011;55508;54.368;18.406;2022-08-24T02:13:16;30.15;;;20.17;;
68315;SDS011;55508;54.368;18.406;2022-08-24T02:15:43;33.78;;;20.33;;
68315;SDS011;55508;54.368;18.406;2022-08-24T02:18:13;31.02;;;19.65;;
68315;SDS011;55508;54.368;18.406;2022-08-24T02:20:42;29.25;;;19.65;;
68315;SDS011;55508;54.368;18.406;2022-08-24T02:23:10;33.72;;;21.23;;
68315;SDS011;55508;54.368;18.406;2022-08-24T02:25:37;34.10;;;21.60;;
68315;SDS011;55508;54.368;18.406;2022-08-24T02:28:04;32.33;;;21.15;;
68315;SDS011;55508;54.368;18.406;2022-08-24T02:30:32;32.60;;;20.70;;
68315;SDS011;55508;54.368;18.406;2022-08-24T02:32:59;33.88;;;21.48;;
68315;SDS011;55508;54.368;18.406;2022-08-24T02:35:27;36.47;;;21.98;;
68315;SDS011;55508;54.368;18.406;2022-08-24T02:37:56;39.83;;;22.08;;
68315;SDS011;55508;54.368;18.406;2022-08-24T02:40:25;32.47;;;21.90;;
68315;SDS011;55508;54.368;18.406;2022-08-24T02:42:54;34.65;;;20.23;;
68315;SDS011;55508;54.368;18.406;2022-08-24T02:45:21;30.83;;;19.88;;
68315;SDS011;55508;54.368;18.406;2022-08-24T02:47:48;32.85;;;20.85;;
68315;SDS011;55508;54.368;18.406;2022-08-24T02:50:17;36.13;;;21.90;;
68315;SDS011;55508;54.368;18.406;2022-08-24T02:52:44;40.90;;;22.70;;
68315;SDS011;55508;54.368;18.406;2022-08-24T02:55:13;39.65;;;21.63;;
68315;SDS011;55508;54.368;18.406;2022-08-24T02:57:48;37.95;;;21.35;;
68315;SDS011;55508;54.368;18.406;2022-08-24T03:00:20;34.05;;;21.65;;
68315;SDS011;55508;54.368;18.406;2022-08-24T03:02:51;36.90;;;22.58;;
68315;SDS011;55508;54.368;18.406;2022-08-24T03:05:20;33.45;;;22.52;;
68315;SDS011;55508;54.368;18.406;2022-08-24T03:07:48;34.75;;;21.90;;
68315;SDS011;55508;54.368;18.406;2022-08-24T03:10:18;36.75;;;22.70;;
68315;SDS011;55508;54.368;18.406;2022-08-24T03:12:45;37.85;;;22.25;;
68315;SDS011;55508;54.368;18.406;2022-08-24T03:15:13;34.05;;;21.73;;
68315;SDS011;55508;54.368;18.406;2022-08-24T03:17:41;32.40;;;21.23;;
68315;SDS011;55508;54.368;18.406;2022-08-24T03:20:10;33.33;;;21.38;;
68315;SDS011;55508;54.368;18.406;2022-08-24T03:22:39;33.72;;;22.08;;
68315;SDS011;55508;54.368;18.406;2022-08-24T03:25:07;36.35;;;22.20;;
68315;SDS011;55508;54.368;18.406;2022-08-24T03:27:35;32.95;;;22.20;;
68315;SDS011;55508;54.368;18.406;2022-08-24T03:30:04;37.63;;;22.27;;
68315;SDS011;55508;54.368;18.406;2022-08-24T03:32:33;36.92;;;22.08;;
68315;SDS011;55508;54.368;18.406;2022-08-24T03:35:01;34.20;;;21.75;;
68315;SDS011;55508;54.368;18.406;2022-08-24T03:37:29;35.70;;;21.83;;
68315;SDS011;55508;54.368;18.406;2022-08-24T03:39:58;32.00;;;21.77;;
68315;SDS011;55508;54.368;18.406;2022-08-24T03:42:26;36.60;;;21.60;;
68315;SDS011;55508;54.368;18.406;2022-08-24T03:44:53;33.83;;;22.27;;
68315;SDS011;55508;54.368;18.406;2022-08-24T03:47:20;33.15;;;22.02;;
68315;SDS011;55508;54.368;18.406;2022-08-24T03:49:48;34.20;;;22.85;;
68315;SDS011;55508;54.368;18.406;2022-08-24T03:52:15;28.50;;;21.77;;
68315;SDS011;55508;54.368;18.406;2022-08-24T03:54:43;32.13;;;23.02;;
68315;SDS011;55508;54.368;18.406;2022-08-24T03:57:11;43.72;;;23.35;;
68315;SDS011;55508;54.368;18.406;2022-08-24T03:59:39;37.58;;;22.63;;
68315;SDS011;55508;54.368;18.406;2022-08-24T04:02:12;33.45;;;22.85;;
68315;SDS011;55508;54.368;18.406;2022-08-24T04:04:40;39.53;;;23.33;;
68315;SDS011;55508;54.368;18.406;2022-08-24T04:07:09;36.08;;;21.90;;
68315;SDS011;55508;54.368;18.406;2022-08-24T04:09:37;31.73;;;22.27;;
68315;SDS011;55508;54.368;18.406;2022-08-24T04:12:04;36.85;;;22.38;;
68315;SDS011;55508;54.368;18.406;2022-08-24T04:14:32;34.35;;;22.63;;
68315;SDS011;55508;54.368;18.406;2022-08-24T04:17:07;30.00;;;22.23;;
68315;SDS011;55508;54.368;18.406;2022-08-24T04:19:39;32.80;;;21.30;;
68315;SDS011;55508;54.368;18.406;2022-08-24T04:22:29;39.20;;;20.88;;
68315;SDS011;55508;54.368;18.406;2022-08-24T04:25:00;30.98;;;21.15;;
68315;SDS011;55508;54.368;18.406;2022-08-24T04:27:34;27.52;;;20.10;;
68315;SDS011;55508;54.368;18.406;2022-08-24T04:30:01;38.03;;;20.25;;
68315;SDS011;55508;54.368;18.406;2022-08-24T04:32:36;28.48;;;18.73;;
68315;SDS011;55508;54.368;18.406;2022-08-24T04:35:04;29.80;;;17.77;;
68315;SDS011;55508;54.368;18.406;2022-08-24T04:37:32;35.47;;;19.67;;
68315;SDS011;55508;54.368;18.406;2022-08-24T04:39:59;35.63;;;18.48;;
68315;SDS011;55508;54.368;18.406;2022-08-24T04:42:32;31.88;;;18.20;;
68315;SDS011;55508;54.368;18.406;2022-08-24T04:44:59;36.88;;;17.55;;
68315;SDS011;55508;54.368;18.406;2022-08-24T04:47:27;28.17;;;17.17;;
68315;SDS011;55508;54.368;18.406;2022-08-24T04:49:54;33.80;;;17.40;;
68315;SDS011;55508;54.368;18.406;2022-08-24T04:52:21;31.02;;;17.48;;
68315;SDS011;55508;54.368;18.406;2022-08-24T04:54:49;28.77;;;17.00;;
68315;SDS011;55508;54.368;18.406;2022-08-24T04:57:20;32.13;;;17.00;;
68315;SDS011;55508;54.368;18.406;2022-08-24T04:59:47;28.80;;;16.75;;
68315;SDS011;55508;54.368;18.406;2022-08-24T05:02:15;39.95;;;16.98;;
68315;SDS011;55508;54.368;18.406;2022-08-24T05:04:45;28.77;;;17.25;;
68315;SDS011;55508;54.368;18.406;2022-08-24T05:07:13;26.67;;;17.27;;
68315;SDS011;55508;54.368;18.406;2022-08-24T05:09:42;34.10;;;17.95;;
68315;SDS011;55508;54.368;18.406;2022-08-24T05:12:09;30.95;;;16.80;;
68315;SDS011;55508;54.368;18.406;2022-08-24T05:14:43;30.27;;;16.48;;
68315;SDS011;55508;54.368;18.406;2022-08-24T05:17:10;31.70;;;16.23;;
68315;SDS011;55508;54.368;18.406;2022-08-24T05:19:38;28.45;;;15.98;;
68315;SDS011;55508;54.368;18.406;2022-08-24T05:22:06;26.25;;;15.05;;
68315;SDS011;55508;54.368;18.406;2022-08-24T05:24:36;25.67;;;15.52;;
68315;SDS011;55508;54.368;18.406;2022-08-24T05:27:03;29.35;;;15.98;;
68315;SDS011;55508;54.368;18.406;2022-08-24T05:29:30;36.33;;;16.40;;
68315;SDS011;55508;54.368;18.406;2022-08-24T05:32:00;26.80;;;14.43;;
68315;SDS011;55508;54.368;18.406;2022-08-24T05:34:30;22.58;;;14.18;;
68315;SDS011;55508;54.368;18.406;2022-08-24T05:36:57;28.35;;;14.57;;
68315;SDS011;55508;54.368;18.406;2022-08-24T05:39:49;22.35;;;14.38;;
68315;SDS011;55508;54.368;18.406;2022-08-24T05:42:17;33.13;;;15.00;;
68315;SDS011;55508;54.368;18.406;2022-08-24T05:44:47;20.65;;;14.30;;
68315;SDS011;55508;54.368;18.406;2022-08-24T05:47:17;18.80;;;13.18;;
68315;SDS011;55508;54.368;18.406;2022-08-24T05:49:46;22.38;;;13.38;;
68315;SDS011;55508;54.368;18.406;2022-08-24T05:52:14;27.48;;;13.35;;
68315;SDS011;55508;54.368;18.406;2022-08-24T05:54:42;23.48;;;13.45;;
68315;SDS011;55508;54.368;18.406;2022-08-24T05:57:13;25.92;;;13.43;;
68315;SDS011;55508;54.368;18.406;2022-08-24T05:59:53;23.65;;;12.63;;
68315;SDS011;55508;54.368;18.406;2022-08-24T06:02:20;19.52;;;10.02;;
68315;SDS011;55508;54.368;18.406;2022-08-24T06:04:49;19.63;;;11.10;;
68315;SDS011;55508;54.368;18.406;2022-08-24T06:07:18;18.98;;;9.55;;
68315;SDS011;55508;54.368;18.406;2022-08-24T06:09:51;22.90;;;10.05;;
68315;SDS011;55508;54.368;18.406;2022-08-24T06:12:19;21.67;;;10.27;;
68315;SDS011;55508;54.368;18.406;2022-08-24T06:14:46;22.17;;;9.73;;
68315;SDS011;55508;54.368;18.406;2022-08-24T06:17:18;17.35;;;9.68;;
68315;SDS011;55508;54.368;18.406;2022-08-24T06:19:45;19.55;;;9.88;;
68315;SDS011;55508;54.368;18.406;2022-08-24T06:22:12;13.85;;;8.98;;
68315;SDS011;55508;54.368;18.406;2022-08-24T06:24:40;22.60;;;9.40;;
68315;SDS011;55508;54.368;18.406;2022-08-24T06:27:26;16.90;;;8.80;;
68315;SDS011;55508;54.368;18.406;2022-08-24T06:29:57;19.08;;;8.75;;
68315;SDS011;55508;54.368;18.406;2022-08-24T06:32:45;18.80;;;8.68;;
68315;SDS011;55508;54.368;18.406;2022-08-24T06:35:32;16.83;;;8.30;;
68315;SDS011;55508;54.368;18.406;2022-08-24T06:38:00;13.57;;;7.63;;
68315;SDS011;55508;54.368;18.406;2022-08-24T06:40:27;18.67;;;8.38;;
68315;SDS011;55508;54.368;18.406;2022-08-24T06:42:55;16.40;;;7.88;;
68315;SDS011;55508;54.368;18.406;2022-08-24T06:45:50;16.73;;;8.20;;
68315;SDS011;55508;54.368;18.406;2022-08-24T06:50:50;14.60;;;6.90;;
68315;SDS011;55508;54.368;18.406;2022-08-24T06:53:17;16.35;;;7.43;;
68315;SDS011;55508;54.368;18.406;2022-08-24T06:55:51;12.55;;;6.93;;
68315;SDS011;55508;54.368;18.406;2022-08-24T06:58:23;15.27;;;7.68;;
68315;SDS011;55508;54.368;18.406;2022-08-24T07:00:53;14.30;;;6.90;;
68315;SDS011;55508;54.368;18.406;2022-08-24T07:03:22;10.95;;;6.20;;
68315;SDS011;55508;54.368;18.406;2022-08-24T07:05:58;16.05;;;6.85;;
68315;SDS011;55508;54.368;18.406;2022-08-24T07:08:44;16.88;;;6.07;;
68315;SDS011;55508;54.368;18.406;2022-08-24T07:11:13;18.10;;;6.47;;
68315;SDS011;55508;54.368;18.406;2022-08-24T07:13:43;17.73;;;6.28;;
68315;SDS011;55508;54.368;18.406;2022-08-24T07:16:13;14.80;;;6.80;;
68315;SDS011;55508;54.368;18.406;2022-08-24T07:18:43;12.75;;;6.60;;
68315;SDS011;55508;54.368;18.406;2022-08-24T07:21:18;15.50;;;6.28;;
68315;SDS011;55508;54.368;18.406;2022-08-24T07:23:48;22.52;;;7.10;;
68315;SDS011;55508;54.368;18.406;2022-08-24T07:26:18;22.73;;;6.82;;
68315;SDS011;55508;54.368;18.406;2022-08-24T07:28:51;11.73;;;5.60;;
68315;SDS011;55508;54.368;18.406;2022-08-24T07:31:20;10.88;;;6.07;;
68315;SDS011;55508;54.368;18.406;2022-08-24T07:34:02;21.20;;;6.53;;
68315;SDS011;55508;54.368;18.406;2022-08-24T07:36:30;9.73;;;6.13;;
68315;SDS011;55508;54.368;18.406;2022-08-24T07:38:58;10.48;;;5.88;;
68315;SDS011;55508;54.368;18.406;2022-08-24T07:41:26;17.88;;;6.32;;
68315;SDS011;55508;54.368;18.406;2022-08-24T07:44:16;17.30;;;6.70;;
68315;SDS011;55508;54.368;18.406;2022-08-24T07:46:44;15.02;;;6.05;;
68315;SDS011;55508;54.368;18.406;2022-08-24T07:49:13;17.15;;;6.13;;
68315;SDS011;55508;54.368;18.406;2022-08-24T07:52:00;18.08;;;6.43;;
68315;SDS011;55508;54.368;18.406;2022-08-24T07:54:27;28.73;;;6.63;;
68315;SDS011;55508;54.368;18.406;2022-08-24T07:56:57;24.90;;;6.57;;
68315;SDS011;55508;54.368;18.406;2022-08-24T07:59:26;19.70;;;6.72;;
68315;SDS011;55508;54.368;18.406;2022-08-24T08:01:54;15.65;;;6.57;;
68315;SDS011;55508;54.368;18.406;2022-08-24T08:04:24;23.63;;;5.57;;
68315;SDS011;55508;54.368;18.406;2022-08-24T08:06:52;20.27;;;5.60;;
68315;SDS011;55508;54.368;18.406;2022-08-24T08:09:23;22.25;;;6.40;;
68315;SDS011;55508;54.368;18.406;2022-08-24T08:11:50;13.75;;;6.03;;
68315;SDS011;55508;54.368;18.406;2022-08-24T08:14:18;13.65;;;5.82;;
68315;SDS011;55508;54.368;18.406;2022-08-24T08:16:45;14.52;;;6.00;;
68315;SDS011;55508;54.368;18.406;2022-08-24T08:19:12;16.02;;;5.25;;
68315;SDS011;55508;54.368;18.406;2022-08-24T08:21:43;17.42;;;5.72;;
68315;SDS011;55508;54.368;18.406;2022-08-24T08:24:35;13.60;;;5.60;;
68315;SDS011;55508;54.368;18.406;2022-08-24T08:27:04;9.52;;;4.93;;
68315;SDS011;55508;54.368;18.406;2022-08-24T08:29:38;12.77;;;5.22;;
68315;SDS011;55508;54.368;18.406;2022-08-24T08:32:07;25.02;;;6.05;;
68315;SDS011;55508;54.368;18.406;2022-08-24T08:34:36;17.75;;;6.80;;
68315;SDS011;55508;54.368;18.406;2022-08-24T08:37:03;16.08;;;5.72;;
68315;SDS011;55508;54.368;18.406;2022-08-24T08:39:31;14.00;;;5.22;;
68315;SDS011;55508;54.368;18.406;2022-08-24T08:44:43;17.58;;;5.97;;
68315;SDS011;55508;54.368;18.406;2022-08-24T08:50:28;21.98;;;6.03;;
68315;SDS011;55508;54.368;18.406;2022-08-24T09:01:44;9.20;;;5.20;;
68315;SDS011;55508;54.368;18.406;2022-08-24T09:04:50;17.23;;;5.30;;
68315;SDS011;55508;54.368;18.406;2022-08-24T09:19:28;14.05;;;5.93;;
68315;SDS011;55508;54.368;18.406;2022-08-24T09:22:16;16.45;;;5.93;;
68315;SDS011;55508;54.368;18.406;2022-08-24T09:30:31;14.02;;;4.40;;
68315;SDS011;55508;54.368;18.406;2022-08-24T09:33:20;11.10;;;4.40;;
68315;SDS011;55508;54.368;18.406;2022-08-24T09:36:05;11.02;;;4.22;;
68315;SDS011;55508;54.368;18.406;2022-08-24T09:52:20;17.42;;;4.47;;
68315;SDS011;55508;54.368;18.406;2022-08-24T09:55:15;19.20;;;4.65;;
68315;SDS011;55508;54.368;18.406;2022-08-24T10:07:03;11.23;;;4.30;;
68315;SDS011;55508;54.368;18.406;2022-08-24T10:17:52;15.02;;;4.72;;
68315;SDS011;55508;54.368;18.406;2022-08-24T10:20:47;12.25;;;4.38;;
68315;SDS011;55508;54.368;18.406;2022-08-24T10:32:36;12.05;;;4.43;;
68315;SDS011;55508;54.368;18.406;2022-08-24T10:35:13;15.70;;;4.63;;
68315;SDS011;55508;54.368;18.406;2022-08-24T10:46:53;15.90;;;4.60;;
68315;SDS011;55508;54.368;18.406;2022-08-24T10:49:34;12.32;;;5.10;;
68315;SDS011;55508;54.368;18.406;2022-08-24T10:55:39;13.13;;;4.95;;
68315;SDS011;55508;54.368;18.406;2022-08-24T10:58:41;13.45;;;4.82;;
68315;SDS011;55508;54.368;18.406;2022-08-24T11:01:12;11.45;;;4.70;;
68315;SDS011;55508;54.368;18.406;2022-08-24T11:03:49;11.18;;;4.90;;
68315;SDS011;55508;54.368;18.406;2022-08-24T11:06:29;16.33;;;4.95;;
68315;SDS011;55508;54.368;18.406;2022-08-24T11:09:06;10.48;;;4.10;;
68315;SDS011;55508;54.368;18.406;2022-08-24T11:11:45;13.80;;;4.75;;
68315;SDS011;55508;54.368;18.406;2022-08-24T11:16:42;12.93;;;4.25;;
68315;SDS011;55508;54.368;18.406;2022-08-24T11:19:12;14.75;;;4.40;;
68315;SDS011;55508;54.368;18.406;2022-08-24T11:21:53;16.03;;;4.37;;
68315;SDS011;55508;54.368;18.406;2022-08-24T11:27:47;5.95;;;4.22;;
68315;SDS011;55508;54.368;18.406;2022-08-24T11:30:11;18.45;;;4.72;;
68315;SDS011;55508;54.368;18.406;2022-08-24T11:37:43;11.38;;;4.35;;
68315;SDS011;55508;54.368;18.406;2022-08-24T11:40:11;12.13;;;4.30;;
68315;SDS011;55508;54.368;18.406;2022-08-24T11:42:49;8.68;;;3.90;;
68315;SDS011;55508;54.368;18.406;2022-08-24T11:45:26;10.05;;;4.40;;
68315;SDS011;55508;54.368;18.406;2022-08-24T12:01:25;19.13;;;5.00;;
68315;SDS011;55508;54.368;18.406;2022-08-24T12:13:00;11.10;;;4.63;;
68315;SDS011;55508;54.368;18.406;2022-08-24T12:15:43;25.60;;;4.78;;
68315;SDS011;55508;54.368;18.406;2022-08-24T12:20:56;11.68;;;4.35;;
68315;SDS011;55508;54.368;18.406;2022-08-24T12:29:00;11.98;;;4.70;;
68315;SDS011;55508;54.368;18.406;2022-08-24T12:31:40;11.65;;;4.05;;
68315;SDS011;55508;54.368;18.406;2022-08-24T12:34:15;16.13;;;6.72;;
68315;SDS011;55508;54.368;18.406;2022-08-24T12:39:45;8.52;;;3.53;;
68315;SDS011;55508;54.368;18.406;2022-08-24T12:42:18;8.63;;;4.72;;
68315;SDS011;55508;54.368;18.406;2022-08-24T12:44:58;8.90;;;4.20;;
68315;SDS011;55508;54.368;18.406;2022-08-24T12:47:33;11.70;;;3.50;;
68315;SDS011;55508;54.368;18.406;2022-08-24T12:50:12;8.93;;;3.63;;
68315;SDS011;55508;54.368;18.406;2022-08-24T12:55:51;9.25;;;3.70;;
68315;SDS011;55508;54.368;18.406;2022-08-24T13:01:21;7.50;;;3.58;;
68315;SDS011;55508;54.368;18.406;2022-08-24T13:04:07;7.68;;;3.70;;
68315;SDS011;55508;54.368;18.406;2022-08-24T13:06:41;8.10;;;3.40;;
68315;SDS011;55508;54.368;18.406;2022-08-24T13:09:25;9.32;;;3.45;;
68315;SDS011;55508;54.368;18.406;2022-08-24T13:12:46;5.75;;;3.97;;
68315;SDS011;55508;54.368;18.406;2022-08-24T13:17:49;6.00;;;3.30;;
68315;SDS011;55508;54.368;18.406;2022-08-24T13:20:25;6.47;;;3.22;;
68315;SDS011;55508;54.368;18.406;2022-08-24T13:23:15;10.75;;;3.28;;
68315;SDS011;55508;54.368;18.406;2022-08-24T13:33:27;11.15;;;3.60;;
68315;SDS011;55508;54.368;18.406;2022-08-24T13:35:59;6.50;;;3.10;;
68315;SDS011;55508;54.368;18.406;2022-08-24T13:41:05;8.88;;;2.80;;
68315;SDS011;55508;54.368;18.406;2022-08-24T13:44:00;10.48;;;3.20;;
68315;SDS011;55508;54.368;18.406;2022-08-24T14:01:05;9.02;;;3.38;;
68315;SDS011;55508;54.368;18.406;2022-08-24T14:27:32;8.85;;;2.50;;
68315;SDS011;55508;54.368;18.406;2022-08-24T14:29:29;4.82;;;2.28;;
68315;SDS011;55508;54.368;18.406;2022-08-24T14:40:57;6.32;;;2.58;;
68315;SDS011;55508;54.368;18.406;2022-08-24T14:46:47;6.72;;;3.13;;
68315;SDS011;55508;54.368;18.406;2022-08-24T14:57:40;6.60;;;3.00;;
68315;SDS011;55508;54.368;18.406;2022-08-24T15:00:17;10.23;;;2.30;;
68315;SDS011;55508;54.368;18.406;2022-08-24T15:08:05;9.52;;;2.97;;
68315;SDS011;55508;54.368;18.406;2022-08-24T15:13:30;9.45;;;3.03;;
68315;SDS011;55508;54.368;18.406;2022-08-24T15:18:56;6.30;;;2.70;;
68315;SDS011;55508;54.368;18.406;2022-08-24T15:21:51;7.20;;;2.95;;
68315;SDS011;55508;54.368;18.406;2022-08-24T15:27:17;6.95;;;2.50;;
68315;SDS011;55508;54.368;18.406;2022-08-24T15:29:50;10.30;;;3.03;;
68315;SDS011;55508;54.368;18.406;2022-08-24T15:32:20;10.20;;;2.92;;
68315;SDS011;55508;54.368;18.406;2022-08-24T15:34:55;5.50;;;3.08;;
68315;SDS011;55508;54.368;18.406;2022-08-24T15:37:34;6.38;;;3.00;;
68315;SDS011;55508;54.368;18.406;2022-08-24T15:40:03;10.73;;;3.50;;
68315;SDS011;55508;54.368;18.406;2022-08-24T15:42:42;6.88;;;3.22;;
68315;SDS011;55508;54.368;18.406;2022-08-24T15:45:09;10.43;;;3.47;;
68315;SDS011;55508;54.368;18.406;2022-08-24T15:47:37;10.27;;;3.20;;
68315;SDS011;55508;54.368;18.406;2022-08-24T15:50:19;8.25;;;3.13;;
68315;SDS011;55508;54.368;18.406;2022-08-24T15:55:42;12.95;;;3.38;;
68315;SDS011;55508;54.368;18.406;2022-08-24T16:00:38;9.32;;;3.58;;
68315;SDS011;55508;54.368;18.406;2022-08-24T16:03:25;14.70;;;3.42;;
68315;SDS011;55508;54.368;18.406;2022-08-24T16:05:55;15.37;;;3.63;;
68315;SDS011;55508;54.368;18.406;2022-08-24T16:08:22;6.80;;;3.45;;
68315;SDS011;55508;54.368;18.406;2022-08-24T16:10:54;9.02;;;3.40;;
68315;SDS011;55508;54.368;18.406;2022-08-24T16:13:24;12.68;;;3.55;;
68315;SDS011;55508;54.368;18.406;2022-08-24T16:15:57;11.85;;;3.60;;
68315;SDS011;55508;54.368;18.406;2022-08-24T16:24:09;13.07;;;3.80;;
68315;SDS011;55508;54.368;18.406;2022-08-24T16:32:14;8.90;;;3.10;;
68315;SDS011;55508;54.368;18.406;2022-08-24T16:35:19;5.25;;;3.28;;
68315;SDS011;55508;54.368;18.406;2022-08-24T16:37:48;9.68;;;3.75;;
68315;SDS011;55508;54.368;18.406;2022-08-24T16:40:16;7.63;;;3.83;;
68315;SDS011;55508;54.368;18.406;2022-08-24T16:42:44;10.10;;;3.80;;
68315;SDS011;55508;54.368;18.406;2022-08-24T16:45:11;9.48;;;3.72;;
68315;SDS011;55508;54.368;18.406;2022-08-24T16:47:42;11.27;;;4.53;;
68315;SDS011;55508;54.368;18.406;2022-08-24T16:50:13;7.65;;;3.45;;
68315;SDS011;55508;54.368;18.406;2022-08-24T16:52:42;12.90;;;3.97;;
68315;SDS011;55508;54.368;18.406;2022-08-24T16:55:10;6.10;;;3.75;;
68315;SDS011;55508;54.368;18.406;2022-08-24T16:57:40;10.85;;;4.28;;
68315;SDS011;55508;54.368;18.406;2022-08-24T17:00:09;12.25;;;4.30;;
68315;SDS011;55508;54.368;18.406;2022-08-24T17:02:40;10.70;;;4.18;;
68315;SDS011;55508;54.368;18.406;2022-08-24T17:05:09;8.18;;;3.80;;
68315;SDS011;55508;54.368;18.406;2022-08-24T17:07:37;5.57;;;3.55;;
68315;SDS011;55508;54.368;18.406;2022-08-24T17:10:05;13.50;;;4.32;;
68315;SDS011;55508;54.368;18.406;2022-08-24T17:12:34;9.07;;;4.00;;
68315;SDS011;55508;54.368;18.406;2022-08-24T17:15:06;9.32;;;3.42;;
68315;SDS011;55508;54.368;18.406;2022-08-24T17:17:35;11.95;;;4.30;;
68315;SDS011;55508;54.368;18.406;2022-08-24T17:20:05;7.78;;;4.25;;
68315;SDS011;55508;54.368;18.406;2022-08-24T17:22:35;8.98;;;3.63;;
68315;SDS011;55508;54.368;18.406;2022-08-24T17:25:03;9.90;;;4.28;;
68315;SDS011;55508;54.368;18.406;2022-08-24T17:27:31;14.23;;;3.92;;
68315;SDS011;55508;54.368;18.406;2022-08-24T17:29:59;13.52;;;4.50;;
68315;SDS011;55508;54.368;18.406;2022-08-24T17:32:28;9.75;;;4.07;;
68315;SDS011;55508;54.368;18.406;2022-08-24T17:34:55;7.75;;;4.00;;
68315;SDS011;55508;54.368;18.406;2022-08-24T17:37:22;8.75;;;3.75;;
68315;SDS011;55508;54.368;18.406;2022-08-24T17:39:53;8.38;;;3.80;;
68315;SDS011;55508;54.368;18.406;2022-08-24T17:42:22;8.07;;;3.72;;
68315;SDS011;55508;54.368;18.406;2022-08-24T17:45:09;11.85;;;4.43;;
68315;SDS011;55508;54.368;18.406;2022-08-24T17:47:38;10.70;;;3.85;;
68315;SDS011;55508;54.368;18.406;2022-08-24T17:50:07;8.05;;;4.22;;
68315;SDS011;55508;54.368;18.406;2022-08-24T17:52:36;9.70;;;4.18;;
68315;SDS011;55508;54.368;18.406;2022-08-24T17:55:04;5.13;;;3.95;;
68315;SDS011;55508;54.368;18.406;2022-08-24T17:57:32;10.15;;;4.32;;
68315;SDS011;55508;54.368;18.406;2022-08-24T17:59:59;10.27;;;5.50;;
68315;SDS011;55508;54.368;18.406;2022-08-24T18:02:37;9.63;;;4.90;;
68315;SDS011;55508;54.368;18.406;2022-08-24T18:05:05;12.10;;;4.63;;
68315;SDS011;55508;54.368;18.406;2022-08-24T18:07:34;33.40;;;22.75;;
68315;SDS011;55508;54.368;18.406;2022-08-24T18:10:20;26.10;;;14.63;;
68315;SDS011;55508;54.368;18.406;2022-08-24T18:12:49;15.40;;;9.20;;
68315;SDS011;55508;54.368;18.406;2022-08-24T18:15:16;7.80;;;4.93;;
68315;SDS011;55508;54.368;18.406;2022-08-24T18:17:45;12.10;;;5.85;;
68315;SDS011;55508;54.368;18.406;2022-08-24T18:20:14;240.65;;;183.45;;
68315;SDS011;55508;54.368;18.406;2022-08-24T18:22:42;743.40;;;653.95;;
68315;SDS011;55508;54.368;18.406;2022-08-24T18:25:11;734.83;;;620.75;;
68315;SDS011;55508;54.368;18.406;2022-08-24T18:27:43;206.93;;;147.63;;
68315;SDS011;55508;54.368;18.406;2022-08-24T18:30:19;75.85;;;38.78;;
68315;SDS011;55508;54.368;18.406;2022-08-24T18:32:50;13.10;;;6.43;;
68315;SDS011;55508;54.368;18.406;2022-08-24T18:35:17;13.60;;;6.18;;
68315;SDS011;55508;54.368;18.406;2022-08-24T18:37:45;13.73;;;5.95;;
68315;SDS011;55508;54.368;18.406;2022-08-24T18:40:12;11.32;;;5.25;;
68315;SDS011;55508;54.368;18.406;2022-08-24T18:42:47;17.38;;;5.85;;
68315;SDS011;55508;54.368;18.406;2022-08-24T18:45:16;14.80;;;6.18;;
68315;SDS011;55508;54.368;18.406;2022-08-24T18:47:43;15.02;;;5.95;;
68315;SDS011;55508;54.368;18.406;2022-08-24T18:50:18;16.35;;;6.07;;